Time;durP1;ratioP1;P1;durP2;ratioP2;P2;SDS_P1;SDS_P2;PMS_P1;PMS_P2;Temp;Humidity;BMP_temperature;BMP_pressure;BME280_temperature;BME280_humidity;BME280_pressure;Samples;Min_cycle;Max_cycle;Signal;HPM_P1;HPM_P2
2023/10/04 00:00:50;;;;;;;2.25;1.15;;;;;;;16.51;73.53;93739.91;2021883;71;20215;-74
2023/10/04 00:03:16;;;;;;;2.45;1.10;;;;;;;16.49;73.20;93746.22;2022220;71;20226;-74
2023/10/04 00:05:42;;;;;;;1.65;1.02;;;;;;;16.45;72.11;93731.78;2022027;71;20196;-74
2023/10/04 00:08:09;;;;;;;2.65;1.45;;;;;;;16.42;72.73;93744.41;2022681;71;20145;-75
2023/10/04 00:10:35;;;;;;;2.35;1.00;;;;;;;16.41;72.02;93730.84;2022447;71;20138;-74
2023/10/04 00:13:00;;;;;;;1.92;1.08;;;;;;;16.39;72.60;93737.13;2022466;71;20630;-74
2023/10/04 00:15:29;;;;;;;2.97;1.00;;;;;;;16.32;73.03;93743.84;2022642;71;20156;-75
2023/10/04 00:17:55;;;;;;;1.65;0.90;;;;;;;16.23;73.47;93736.22;2022638;71;20137;-76
2023/10/04 00:20:22;;;;;;;1.67;1.00;;;;;;;16.24;73.03;93744.13;2022777;71;20173;-76
2023/10/04 00:22:48;;;;;;;1.52;1.00;;;;;;;16.18;72.73;93740.94;2022051;71;20176;-76
2023/10/04 00:25:23;;;;;;;2.22;0.90;;;;;;;16.24;72.00;93746.22;2022756;71;20153;-75
2023/10/04 00:28:02;;;;;;;1.10;0.82;;;;;;;16.16;72.59;93748.59;2022551;71;20169;-76
2023/10/04 00:30:32;;;;;;;1.98;0.95;;;;;;;16.10;72.97;93740.47;2022716;71;20133;-74
2023/10/04 00:33:19;;;;;;;2.47;1.00;;;;;;;15.99;73.35;93732.75;2022013;71;20140;-75
2023/10/04 00:35:45;;;;;;;1.75;1.15;;;;;;;15.92;73.47;93728.06;2021816;71;20611;-75
2023/10/04 00:38:14;;;;;;;2.25;0.90;;;;;;;15.99;72.80;93715.72;2021857;71;20184;-75
2023/10/04 00:40:41;;;;;;;1.25;0.80;;;;;;;15.95;73.08;93713.38;2021579;71;20185;-74
2023/10/04 00:43:13;;;;;;;1.80;1.00;;;;;;;15.92;73.63;93717.44;2019306;71;20172;-76
2023/10/04 00:45:42;;;;;;;1.95;1.10;;;;;;;15.99;72.63;93724.22;2022105;71;20607;-74
2023/10/04 00:48:11;;;;;;;1.63;1.00;;;;;;;15.99;72.59;93724.97;2022029;71;20169;-74
2023/10/04 00:50:38;;;;;;;2.30;1.05;;;;;;;15.89;72.93;93721.53;2022105;71;20156;-74
2023/10/04 00:53:16;;;;;;;1.55;0.93;;;;;;;15.96;73.18;93731.16;2021847;71;20177;-74
2023/10/04 00:55:46;;;;;;;2.00;1.00;;;;;;;15.82;74.41;93742.44;2021746;71;20203;-74
2023/10/04 00:58:15;;;;;;;2.38;1.20;;;;;;;15.84;74.35;93734.00;2022020;71;20151;-74
2023/10/04 01:00:41;;;;;;;1.65;0.90;;;;;;;15.89;74.09;93730.03;2021787;71;20195;-74
2023/10/04 01:03:11;;;;;;;1.77;1.10;;;;;;;15.89;73.63;93741.41;2021566;71;20583;-73
2023/10/04 01:05:47;;;;;;;2.88;0.98;;;;;;;15.90;73.79;93736.50;2022577;71;20165;-73
2023/10/04 01:08:15;;;;;;;6.75;1.38;;;;;;;15.94;73.37;93737.47;2022204;71;20153;-73
2023/10/04 01:10:44;;;;;;;1.75;1.13;;;;;;;15.92;73.51;93742.28;2022803;71;20177;-74
2023/10/04 01:13:11;;;;;;;3.33;1.13;;;;;;;15.78;74.47;93738.63;2021885;71;20145;-75
2023/10/04 01:15:41;;;;;;;2.22;1.08;;;;;;;15.92;73.99;93737.34;2022031;71;20148;-75
2023/10/04 01:18:11;;;;;;;2.10;1.23;;;;;;;15.82;74.43;93748.09;2019204;71;20214;-74
2023/10/04 01:20:39;;;;;;;4.25;1.23;;;;;;;15.93;73.98;93749.44;2022333;71;20157;-76
2023/10/04 01:23:06;;;;;;;3.03;1.20;;;;;;;15.89;74.53;93741.41;2022742;71;20257;-74
2023/10/04 01:25:34;;;;;;;1.92;0.98;;;;;;;15.92;74.49;93739.44;2022253;71;20241;-74
2023/10/04 01:28:48;;;;;;;2.13;1.38;;;;;;;15.87;74.48;93740.56;2021952;71;20150;-74
2023/10/04 01:30:59;;;;;;;3.10;1.23;;;;;;;15.83;74.77;93737.50;2021741;71;20152;-74
2023/10/04 01:33:28;;;;;;;1.67;1.02;;;;;;;15.82;74.43;93736.00;2021589;71;20154;-74
2023/10/04 01:35:54;;;;;;;2.22;1.00;;;;;;;15.85;74.48;93740.44;2022612;71;20146;-74
2023/10/04 01:38:25;;;;;;;2.65;1.30;;;;;;;15.85;74.42;93731.91;2022601;71;20153;-74
2023/10/04 01:40:57;;;;;;;2.10;0.98;;;;;;;15.64;75.52;93725.06;2022179;71;20173;-74
2023/10/04 01:43:24;;;;;;;4.45;1.60;;;;;;;15.71;75.08;93731.81;2021938;71;20185;-74
2023/10/04 01:45:52;;;;;;;2.70;1.20;;;;;;;15.75;75.06;93740.59;2022192;71;20157;-74
2023/10/04 01:48:22;;;;;;;4.22;1.33;;;;;;;15.79;74.06;93726.63;2022905;71;20161;-74
2023/10/04 01:50:57;;;;;;;2.55;1.15;;;;;;;15.77;74.70;93740.72;2022064;71;20172;-75
2023/10/04 01:53:24;;;;;;;3.00;1.42;;;;;;;15.79;74.70;93737.97;2022062;71;20149;-74
2023/10/04 01:55:50;;;;;;;4.22;1.30;;;;;;;15.79;75.02;93740.09;2019282;71;20230;-74
2023/10/04 01:58:21;;;;;;;1.50;0.93;;;;;;;15.78;74.29;93738.63;2021964;71;20158;-74
2023/10/04 02:00:47;;;;;;;3.45;1.10;;;;;;;15.71;74.71;93729.00;2019531;71;20165;-75
2023/10/04 02:03:14;;;;;;;3.35;1.20;;;;;;;15.69;72.21;93734.56;2019503;71;20143;-74
2023/10/04 02:05:40;;;;;;;2.85;1.30;;;;;;;15.51;74.95;93728.53;2022132;71;20157;-74
2023/10/04 02:08:10;;;;;;;2.65;1.40;;;;;;;15.65;75.02;93720.88;2022516;71;20248;-75
2023/10/04 02:10:36;;;;;;;4.30;1.25;;;;;;;15.65;74.93;93722.97;2022446;71;20230;-74
2023/10/04 02:13:12;;;;;;;3.58;1.20;;;;;;;15.71;74.79;93732.59;2021585;71;20165;-75
2023/10/04 02:15:51;;;;;;;2.47;1.33;;;;;;;15.67;74.41;93737.28;2019040;71;20173;-75
2023/10/04 02:18:21;;;;;;;2.47;1.13;;;;;;;15.48;75.18;93732.59;2021806;71;20165;-74
2023/10/04 02:20:53;;;;;;;1.38;1.00;;;;;;;15.53;74.44;93728.63;2021749;71;20248;-76
2023/10/04 02:23:23;;;;;;;4.28;1.10;;;;;;;15.55;73.23;93731.59;2022474;71;20245;-76
2023/10/04 02:25:51;;;;;;;3.42;1.13;;;;;;;15.30;74.95;93732.25;2020999;71;20189;-74
2023/10/04 02:28:23;;;;;;;3.20;1.25;;;;;;;15.28;75.06;93728.56;2019094;71;20161;-75
2023/10/04 02:30:54;;;;;;;2.55;1.10;;;;;;;15.15;75.52;93729.94;2018915;71;20158;-75
2023/10/04 02:33:19;;;;;;;2.40;1.30;;;;;;;15.14;75.64;93726.34;2018710;71;20157;-76
2023/10/04 02:35:50;;;;;;;1.85;1.00;;;;;;;15.00;76.07;93731.16;2018602;71;20246;-75
2023/10/04 02:38:24;;;;;;;2.15;1.00;;;;;;;14.97;75.91;93724.63;2019336;71;20274;-75
2023/10/04 02:40:51;;;;;;;3.67;1.20;;;;;;;14.85;76.00;93729.56;2021325;71;20499;-76
2023/10/04 02:43:18;;;;;;;2.38;1.42;;;;;;;14.81;75.44;93726.47;2019020;71;20191;-75
2023/10/04 02:45:43;;;;;;;3.15;1.40;;;;;;;14.91;74.87;93729.94;2018996;71;20160;-76
2023/10/04 02:48:13;;;;;;;3.55;1.27;;;;;;;14.85;75.33;93738.06;2016246;71;20146;-77
2023/10/04 02:50:43;;;;;;;2.25;1.30;;;;;;;14.71;75.67;93735.09;2019018;71;20591;-76
2023/10/04 02:53:16;;;;;;;2.50;1.40;;;;;;;14.86;75.47;93738.81;2018499;71;20170;-74
2023/10/04 02:55:44;;;;;;;11.25;1.60;;;;;;;14.85;75.49;93729.56;2018378;71;20154;-74
2023/10/04 02:58:12;;;;;;;2.85;1.55;;;;;;;14.74;76.77;93731.03;2018307;71;20178;-74
2023/10/04 03:00:44;;;;;;;2.90;1.30;;;;;;;14.64;76.35;93716.22;2021219;71;20169;-75
2023/10/04 03:03:13;;;;;;;;;;;;;;;14.84;75.59;93733.00;2021482;71;20174;-74
2023/10/04 03:05:41;;;;;;;2.95;1.35;;;;;;;14.81;75.75;93737.81;2019108;71;20046;-77
2023/10/04 03:08:08;;;;;;;2.70;1.20;;;;;;;14.71;75.73;93728.69;2020983;71;20149;-74
2023/10/04 03:10:40;;;;;;;2.22;1.30;;;;;;;14.65;76.70;93737.53;2019185;71;20169;-74
2023/10/04 03:13:12;;;;;;;2.53;1.20;;;;;;;14.71;75.94;93737.19;2018789;71;20609;-74
2023/10/04 03:15:39;;;;;;;2.30;1.30;;;;;;;14.79;74.55;93736.94;2021088;71;20237;-74
2023/10/04 03:18:13;;;;;;;3.88;1.33;;;;;;;14.65;76.21;93739.63;2021301;71;20283;-74
2023/10/04 03:20:48;;;;;;;4.28;1.58;;;;;;;14.73;75.80;93752.22;2019112;71;20156;-74
2023/10/04 03:23:17;;;;;;;2.30;1.42;;;;;;;14.66;75.59;93749.63;2016097;71;20180;-74
2023/10/04 03:25:47;;;;;;;3.05;1.60;;;;;;;14.67;75.75;93753.94;2021397;71;20152;-74
2023/10/04 03:28:14;;;;;;;3.88;1.40;;;;;;;14.56;76.46;93754.66;2021295;71;20153;-75
2023/10/04 03:30:44;;;;;;;1.70;1.23;;;;;;;14.52;76.72;93743.78;2018637;71;20181;-74
2023/10/04 03:33:10;;;;;;;3.47;1.50;;;;;;;14.53;76.28;93755.91;2018679;71;20160;-75
2023/10/04 03:35:39;;;;;;;2.60;1.40;;;;;;;14.55;76.14;93747.50;2021303;71;20146;-74
2023/10/04 03:38:06;;;;;;;2.88;1.25;;;;;;;14.48;76.59;93747.13;2018920;71;20537;-75
2023/10/04 03:40:37;;;;;;;2.47;1.30;;;;;;;14.63;75.47;93745.19;2019403;71;20219;-75
2023/10/04 03:43:12;;;;;;;2.47;1.23;;;;;;;14.62;74.43;93744.44;2021504;71;20612;-75
2023/10/04 03:45:40;;;;;;;3.17;1.58;;;;;;;14.60;75.60;93740.75;2016723;71;20534;-76
2023/10/04 03:48:15;;;;;;;5.28;1.60;;;;;;;14.45;76.26;93741.91;2019311;71;20157;-76
2023/10/04 03:50:48;;;;;;;2.95;1.30;;;;;;;14.41;75.49;93741.66;2019848;71;20302;-77
2023/10/04 03:53:15;;;;;;;5.22;1.45;;;;;;;14.33;76.54;93744.72;2019101;71;20146;-77
2023/10/04 03:55:43;;;;;;;3.17;1.80;;;;;;;14.27;76.80;93737.94;2021857;71;20624;-77
2023/10/04 03:58:11;;;;;;;4.90;1.48;;;;;;;14.26;76.53;93742.88;2019246;71;20145;-76
2023/10/04 04:00:39;;;;;;;2.75;1.58;;;;;;;14.17;77.34;93746.53;2019764;71;20233;-76
2023/10/04 04:03:06;;;;;;;2.35;1.40;;;;;;;14.11;77.56;93748.94;2019757;71;20232;-76
2023/10/04 04:05:38;;;;;;;3.22;1.55;;;;;;;14.17;77.13;93752.19;2019176;71;20158;-76
2023/10/04 04:08:05;;;;;;;3.20;1.60;;;;;;;14.20;76.43;93757.38;2019045;71;20157;-76
2023/10/04 04:10:36;;;;;;;4.40;1.60;;;;;;;14.09;76.94;93757.31;2019095;71;20272;-74
2023/10/04 04:13:03;;;;;;;3.33;1.83;;;;;;;14.08;77.44;93758.69;2019361;71;20553;-75
2023/10/04 04:15:33;;;;;;;3.47;1.80;;;;;;;14.19;76.50;93769.28;2018858;71;20146;-76
2023/10/04 04:17:59;;;;;;;3.67;1.90;;;;;;;14.29;74.72;93766.38;2018932;71;20138;-76
2023/10/04 04:20:26;;;;;;;4.00;1.80;;;;;;;14.27;75.43;93769.09;2018995;71;20607;-75
2023/10/04 04:22:55;;;;;;;5.47;2.13;;;;;;;14.23;76.20;93770.31;2019474;71;20165;-76
2023/10/04 04:25:26;;;;;;;5.22;2.33;;;;;;;14.13;76.47;93772.50;2019767;71;20149;-74
2023/10/04 04:27:56;;;;;;;3.80;2.15;;;;;;;14.14;75.91;93770.38;2018938;71;20146;-76
2023/10/04 04:30:28;;;;;;;4.93;2.05;;;;;;;14.22;76.79;93777.31;2019820;71;20214;-75
2023/10/04 04:32:58;;;;;;;6.32;1.98;;;;;;;14.21;76.59;93777.94;2022032;71;20249;-76
2023/10/04 04:35:40;;;;;;;5.60;2.63;;;;;;;14.10;77.28;93782.19;2019236;71;20164;-75
2023/10/04 04:40:38;;;;;;;4.18;1.92;;;;;;;14.07;77.33;93774.94;2021575;71;20238;-76
2023/10/04 04:45:58;;;;;;;7.65;2.53;;;;;;;14.11;76.96;93792.19;2022030;71;20153;-77
2023/10/04 04:48:47;;;;;;;6.28;2.45;;;;;;;14.18;76.07;93787.66;2015846;71;20162;-75
2023/10/04 04:51:17;;;;;;;4.25;2.20;;;;;;;14.10;76.81;93782.19;2015637;71;20245;-74
2023/10/04 04:53:46;;;;;;;5.72;2.10;;;;;;;14.04;77.98;93790.28;2012931;71;20597;-78
2023/10/04 04:56:15;;;;;;;4.28;2.47;;;;;;;13.97;77.91;93788.41;2013098;71;20153;-77
2023/10/04 04:58:52;;;;;;;4.93;2.47;;;;;;;13.90;78.99;93781.63;2015707;71;20170;-77
2023/10/04 05:01:18;;;;;;;4.00;2.20;;;;;;;14.01;78.05;93777.34;2015715;71;20173;-77
2023/10/04 05:03:46;;;;;;;3.70;2.17;;;;;;;14.12;76.74;93778.78;2015653;71;20150;-77
2023/10/04 05:06:22;;;;;;;5.70;2.30;;;;;;;14.15;77.20;93781.09;2013029;71;20150;-76
2023/10/04 05:08:56;;;;;;;4.55;2.10;;;;;;;14.15;77.73;93783.19;2015739;71;20675;-76
2023/10/04 05:11:25;;;;;;;4.18;2.15;;;;;;;14.16;77.60;93782.59;2015713;71;20110;-77
2023/10/04 05:13:53;;;;;;;4.05;2.30;;;;;;;14.18;77.85;93794.03;2015739;71;20190;-77
2023/10/04 05:16:21;;;;;;;4.65;2.20;;;;;;;14.10;78.01;93789.94;2015707;71;20154;-76
2023/10/04 05:18:46;;;;;;;4.10;2.30;;;;;;;14.18;77.67;93798.97;2015812;71;20272;-77
2023/10/04 05:21:14;;;;;;;10.05;4.10;;;;;;;14.12;77.72;93799.31;2018920;71;20599;-75
2023/10/04 05:23:40;;;;;;;14.75;6.82;;;;;;;14.16;76.60;93799.59;2019728;71;20173;-76
2023/10/04 05:26:08;;;;;;;10.15;5.53;;;;;;;14.15;77.09;93800.19;2019797;71;20146;-76
2023/10/04 05:28:35;;;;;;;9.48;4.68;;;;;;;14.12;76.88;93802.16;2019336;71;20183;-76
2023/10/04 05:31:08;;;;;;;12.82;5.00;;;;;;;14.19;76.60;93800.44;2020038;71;20141;-76
2023/10/04 05:33:35;;;;;;;10.45;4.60;;;;;;;14.23;76.62;93807.13;2019379;71;20169;-75
2023/10/04 05:36:01;;;;;;;10.10;3.53;;;;;;;14.19;77.16;93801.19;2019338;71;20150;-76
2023/10/04 05:38:28;;;;;;;6.15;3.33;;;;;;;14.11;77.11;93794.25;2019768;71;20141;-75
2023/10/04 05:40:54;;;;;;;9.52;4.50;;;;;;;14.04;77.60;93795.22;2019473;71;20150;-77
2023/10/04 05:43:19;;;;;;;8.35;4.10;;;;;;;14.15;76.87;93803.00;2019206;71;20150;-77
2023/10/04 05:45:47;;;;;;;8.98;3.85;;;;;;;14.14;77.68;93805.09;2019201;71;20177;-76
2023/10/04 05:48:14;;;;;;;6.78;3.70;;;;;;;14.14;77.71;93805.09;2019263;71;20145;-77
2023/10/04 05:50:40;;;;;;;8.05;3.67;;;;;;;14.10;78.26;93802.00;2019234;71;20601;-76
2023/10/04 05:53:06;;;;;;;5.35;3.38;;;;;;;14.27;76.68;93812.31;2019181;71;20148;-77
2023/10/04 05:55:37;;;;;;;5.45;2.70;;;;;;;14.34;76.37;93822.69;2019315;71;20697;-76
2023/10/04 05:58:07;;;;;;;8.10;3.17;;;;;;;14.37;75.49;93812.22;2019230;71;20158;-76
2023/10/04 06:00:37;;;;;;;4.75;2.88;;;;;;;14.27;77.10;93820.06;2019213;71;20169;-76
2023/10/04 06:03:11;;;;;;;5.28;2.83;;;;;;;14.27;76.94;93820.81;2019262;71;20184;-77
2023/10/04 06:05:38;;;;;;;6.18;2.92;;;;;;;14.35;76.21;93812.84;2019084;71;20247;-76
2023/10/04 06:08:15;;;;;;;5.57;2.72;;;;;;;14.37;76.91;93815.78;2019243;71;20164;-76
2023/10/04 06:10:43;;;;;;;3.50;2.17;;;;;;;14.44;75.25;93828.28;2019013;71;20165;-76
2023/10/04 06:13:11;;;;;;;6.28;2.88;;;;;;;14.60;75.52;93832.16;2019169;71;20153;-76
2023/10/04 06:15:46;;;;;;;6.13;2.75;;;;;;;14.60;76.31;93835.00;2019384;71;20218;-75
2023/10/04 06:18:12;;;;;;;4.28;2.67;;;;;;;14.66;74.58;93840.31;2019071;71;20520;-75
2023/10/04 06:20:40;;;;;;;5.90;2.85;;;;;;;14.16;77.69;93844.91;2019248;71;20157;-75
2023/10/04 06:23:09;;;;;;;4.38;2.80;;;;;;;14.43;76.93;93858.69;2019236;71;20150;-75
2023/10/04 06:25:40;;;;;;;4.70;2.42;;;;;;;14.67;74.88;93856.72;2019255;71;20165;-76
2023/10/04 06:28:06;;;;;;;5.53;2.70;;;;;;;14.78;74.97;93858.09;2019251;71;20150;-76
2023/10/04 06:30:33;;;;;;;5.25;2.90;;;;;;;14.95;75.27;93859.88;2018940;71;20168;-77
2023/10/04 06:33:01;;;;;;;4.78;2.85;;;;;;;14.98;74.93;93867.91;2019550;71;20154;-76
2023/10/04 06:35:29;;;;;;;7.85;3.30;;;;;;;14.99;75.65;93857.28;2018766;71;20157;-77
2023/10/04 06:37:59;;;;;;;5.18;2.95;;;;;;;15.14;74.08;93865.31;2019339;71;20166;-77
2023/10/04 06:40:27;;;;;;;4.35;2.88;;;;;;;15.06;73.53;93876.16;2018702;71;20149;-76
2023/10/04 06:42:55;;;;;;;7.28;3.10;;;;;;;14.41;77.86;93872.72;2019374;71;20153;-77
2023/10/04 06:45:24;;;;;;;4.97;2.60;;;;;;;14.44;78.60;93879.28;2019310;71;20150;-77
2023/10/04 06:47:53;;;;;;;4.82;2.80;;;;;;;14.89;76.49;93880.09;2019295;71;20153;-77
2023/10/04 06:50:20;;;;;;;7.30;2.80;;;;;;;14.88;75.73;93872.91;2019204;71;20149;-77
2023/10/04 06:52:48;;;;;;;5.82;2.90;;;;;;;15.20;75.10;93862.13;2019409;71;20138;-77
2023/10/04 06:55:15;;;;;;;6.88;2.80;;;;;;;15.28;74.83;93865.47;2019512;71;20274;-77
2023/10/04 06:57:43;;;;;;;6.00;3.20;;;;;;;15.25;74.92;93858.19;2018971;71;20184;-76
2023/10/04 07:00:14;;;;;;;11.60;2.88;;;;;;;15.22;74.39;93873.63;2018887;71;20607;-77
2023/10/04 07:02:43;;;;;;;6.32;2.75;;;;;;;15.15;74.14;93866.06;2018878;71;20660;-76
2023/10/04 07:05:13;;;;;;;8.25;3.42;;;;;;;15.07;74.96;93860.63;2019344;71;20145;-77
2023/10/04 07:07:38;;;;;;;5.78;3.28;;;;;;;14.98;75.13;93859.41;2019397;71;20153;-77
2023/10/04 07:10:07;;;;;;;5.10;2.92;;;;;;;15.12;74.12;93859.53;2019338;71;20519;-77
2023/10/04 07:12:34;;;;;;;5.45;3.80;;;;;;;14.87;75.73;93859.34;2019139;71;20244;-77
2023/10/04 07:15:01;;;;;;;4.95;2.88;;;;;;;14.92;74.55;93861.09;2018783;71;20152;-77
2023/10/04 07:17:29;;;;;;;5.55;3.20;;;;;;;14.97;74.71;93871.34;2019134;71;20188;-77
2023/10/04 07:19:58;;;;;;;8.68;3.42;;;;;;;15.05;74.99;93871.84;2019775;71;20150;-77
2023/10/04 07:22:29;;;;;;;4.97;3.03;;;;;;;15.14;74.80;93878.78;2019910;71;20169;-77
2023/10/04 07:24:57;;;;;;;5.77;3.07;;;;;;;15.20;74.78;93885.56;2020329;71;20208;-77
2023/10/04 07:27:23;;;;;;;5.57;2.85;;;;;;;15.34;73.87;93893.47;2019995;71;20374;-77
2023/10/04 07:29:50;;;;;;;6.25;2.63;;;;;;;15.37;74.50;93895.81;2019913;71;20587;-75
2023/10/04 07:32:16;;;;;;;6.70;3.00;;;;;;;15.42;74.84;93899.66;2019852;71;20157;-77
2023/10/04 07:34:42;;;;;;;5.10;3.00;;;;;;;15.43;74.63;93896.19;2019829;71;20181;-77
2023/10/04 07:37:08;;;;;;;7.13;3.65;;;;;;;15.18;74.46;93896.78;2019524;71;20206;-77
2023/10/04 07:39:35;;;;;;;5.75;3.58;;;;;;;15.25;74.25;93903.56;2019147;71;20236;-75
2023/10/04 07:42:04;;;;;;;6.10;3.30;;;;;;;15.08;75.28;93893.31;2019530;71;20596;-78
2023/10/04 07:44:33;;;;;;;6.57;3.03;;;;;;;15.36;74.41;93882.25;2019690;71;20161;-76
2023/10/04 07:47:02;;;;;;;6.20;3.58;;;;;;;15.80;75.52;93881.41;2019249;71;20146;-75
2023/10/04 07:49:31;;;;;;;7.78;4.07;;;;;;;15.64;75.90;93874.78;2019901;71;20153;-76
2023/10/04 07:51:58;;;;;;;10.23;4.60;;;;;;;15.71;77.18;93879.44;2019741;71;20182;-76
2023/10/04 07:54:24;;;;;;;7.40;4.38;;;;;;;16.39;75.04;93879.22;2019113;71;20158;-77
2023/10/04 07:56:50;;;;;;;8.55;4.55;;;;;;;16.66;72.98;93878.63;2019468;71;20157;-78
2023/10/04 07:59:17;;;;;;;11.18;4.65;;;;;;;17.30;71.84;93868.69;2019562;71;20582;-78
2023/10/04 08:01:43;;;;;;;7.63;4.30;;;;;;;17.02;70.75;93873.56;2019379;71;20535;-79
2023/10/04 08:04:11;;;;;;;8.10;3.70;;;;;;;17.71;69.86;93868.75;2019763;71;20158;-78
2023/10/04 08:06:38;;;;;;;6.72;3.50;;;;;;;17.63;68.42;93864.72;2019336;71;20153;-76
2023/10/04 08:09:04;;;;;;;6.97;3.10;;;;;;;17.50;67.71;93860.47;2019683;71;20153;-77
2023/10/04 08:11:32;;;;;;;5.53;2.65;;;;;;;17.63;67.71;93870.44;2019609;71;20168;-78
2023/10/04 08:13:58;;;;;;;5.28;2.90;;;;;;;17.58;66.06;93860.19;2019550;71;20283;-78
2023/10/04 08:16:24;;;;;;;9.98;3.22;;;;;;;18.26;66.27;93859.47;2019674;71;20221;-78
2023/10/04 08:18:50;;;;;;;6.72;2.85;;;;;;;18.67;65.05;93858.66;2019819;71;20149;-76
2023/10/04 08:21:16;;;;;;;6.05;3.30;;;;;;;18.91;63.11;93859.13;2019031;71;20145;-76
2023/10/04 08:23:42;;;;;;;5.28;2.92;;;;;;;19.39;61.33;93857.84;2019628;71;20178;-77
2023/10/04 08:26:14;;;;;;;4.88;2.47;;;;;;;19.58;60.51;93864.41;2019580;71;20603;-77
2023/10/04 08:28:41;;;;;;;3.55;2.13;;;;;;;20.09;59.50;93858.88;2019342;71;20142;-77
2023/10/04 08:31:13;;;;;;;5.53;2.55;;;;;;;20.43;58.33;93865.31;2019557;71;20258;-77
2023/10/04 08:33:43;;;;;;;4.10;2.37;;;;;;;20.52;57.35;93860.72;2019766;71;20181;-77
2023/10/04 08:36:16;;;;;;;3.00;2.33;;;;;;;21.06;56.27;93862.22;2019234;71;20628;-77
2023/10/04 08:38:42;;;;;;;4.05;2.15;;;;;;;20.85;56.67;93864.91;2019715;71;20200;-78
2023/10/04 08:41:08;;;;;;;5.57;2.25;;;;;;;21.13;56.87;93863.22;2019740;71;20607;-78
2023/10/04 08:43:34;;;;;;;4.85;2.58;;;;;;;21.06;54.35;93856.50;2019592;71;20223;-77
2023/10/04 08:46:04;;;;;;;3.83;2.72;;;;;;;20.86;54.45;93857.81;2019709;71;20268;-77
2023/10/04 08:48:31;;;;;;;3.75;2.33;;;;;;;20.83;55.26;93850.53;2019860;71;20146;-77
2023/10/04 08:51:07;;;;;;;6.63;2.40;;;;;;;20.75;56.75;93850.94;2019003;71;20178;-78
2023/10/04 08:53:52;;;;;;;3.85;2.50;;;;;;;22.33;53.78;93858.44;2019554;71;20619;-77
2023/10/04 08:56:19;;;;;;;4.93;2.53;;;;;;;22.21;51.91;93841.53;2019601;71;20163;-78
2023/10/04 08:58:46;;;;;;;5.32;2.50;;;;;;;22.22;50.47;93848.75;2019557;71;20153;-77
2023/10/04 09:01:15;;;;;;;3.13;2.10;;;;;;;22.43;50.49;93852.34;2019707;71;20178;-77
2023/10/04 09:03:42;;;;;;;5.60;2.20;;;;;;;22.95;48.72;93849.78;2019714;71;20613;-78
2023/10/04 09:06:17;;;;;;;4.03;1.98;;;;;;;23.33;48.31;93845.31;2019731;71;20626;-78
2023/10/04 09:08:46;;;;;;;6.85;3.45;;;;;;;23.15;48.63;93841.84;2019825;71;20281;-77
2023/10/04 09:11:15;;;;;;;4.18;2.60;;;;;;;21.85;51.41;93835.19;2019578;71;20199;-76
2023/10/04 09:13:43;;;;;;;5.00;2.25;;;;;;;23.02;48.91;93839.97;2019597;71;20160;-76
2023/10/04 09:16:24;;;;;;;3.33;2.20;;;;;;;23.67;48.78;93833.41;2019714;71;20519;-76
2023/10/04 09:19:17;;;;;;;3.97;2.40;;;;;;;22.56;48.93;93837.00;2019391;71;20134;-77
2023/10/04 09:21:44;;;;;;;8.13;3.72;;;;;;;22.06;50.69;93834.53;2018590;71;20564;-76
2023/10/04 09:24:16;;;;;;;6.38;4.32;;;;;;;21.99;50.00;93830.00;2019525;71;20618;-77
2023/10/04 09:26:52;;;;;;;16.47;11.67;;;;;;;23.05;48.37;93830.03;2019287;71;20200;-76
2023/10/04 09:29:36;;;;;;;6.63;3.10;;;;;;;22.83;49.39;93827.88;2019356;71;20157;-76
2023/10/04 09:32:03;;;;;;;6.35;3.65;;;;;;;23.31;48.28;93825.09;2019567;71;20165;-76
2023/10/04 09:34:30;;;;;;;5.43;2.67;;;;;;;24.29;46.68;93827.28;2018627;71;20173;-77
2023/10/04 09:36:56;;;;;;;6.38;2.70;;;;;;;23.74;46.09;93825.72;2019608;71;20150;-77
2023/10/04 09:39:27;;;;;;;5.32;2.17;;;;;;;24.67;44.63;93815.34;2018928;71;20204;-77
2023/10/04 09:41:57;;;;;;;3.45;2.20;;;;;;;23.91;45.39;93816.13;2019338;71;20142;-76
2023/10/04 09:44:29;;;;;;;4.05;2.17;;;;;;;25.08;44.08;93820.00;2018759;71;20518;-76
2023/10/04 09:47:05;;;;;;;5.70;2.42;;;;;;;25.34;43.38;93823.50;2019314;71;20180;-77
2023/10/04 09:49:32;;;;;;;5.50;2.05;;;;;;;25.92;42.81;93822.63;2019222;71;20142;-77
2023/10/04 09:52:12;;;;;;;4.07;2.20;;;;;;;25.71;42.90;93824.31;2018668;71;20142;-77
2023/10/04 09:54:38;;;;;;;4.03;2.17;;;;;;;25.98;41.99;93817.00;2019277;71;20146;-77
2023/10/04 09:57:07;;;;;;;4.13;2.30;;;;;;;26.84;39.31;93824.41;2018532;71;20606;-77
2023/10/04 09:59:34;;;;;;;3.75;2.28;;;;;;;27.42;39.75;93814.53;2018983;71;20648;-76
2023/10/04 10:02:02;;;;;;;3.05;2.15;;;;;;;27.89;38.43;93813.06;2019104;71;20153;-77
2023/10/04 10:04:36;;;;;;;4.75;2.15;;;;;;;27.48;38.77;93800.16;2019171;71;20145;-77
2023/10/04 10:07:10;;;;;;;3.45;2.00;;;;;;;28.19;37.29;93801.16;2018737;71;20154;-77
2023/10/04 10:09:48;;;;;;;2.90;1.90;;;;;;;28.81;36.75;93785.16;2019264;71;20686;-76
2023/10/04 10:12:15;;;;;;;4.13;2.13;;;;;;;29.18;35.65;93782.63;2018657;71;20145;-77
2023/10/04 10:14:42;;;;;;;3.05;2.08;;;;;;;28.57;37.51;93786.41;2019251;71;20142;-76
2023/10/04 10:17:10;;;;;;;4.45;2.13;;;;;;;28.36;36.57;93773.13;2019105;71;20156;-77
2023/10/04 10:19:37;;;;;;;3.17;2.05;;;;;;;28.34;37.10;93773.84;2019145;71;20677;-77
2023/10/04 10:22:08;;;;;;;3.22;2.20;;;;;;;28.38;34.45;93757.97;2019154;71;20170;-76
2023/10/04 10:24:42;;;;;;;5.85;2.30;;;;;;;28.72;33.65;93764.09;2019296;71;20152;-76
2023/10/04 10:27:08;;;;;;;2.95;2.30;;;;;;;29.24;33.74;93777.59;2019289;71;20146;-77
2023/10/04 10:29:36;;;;;;;3.15;2.28;;;;;;;30.25;33.90;93768.06;2019075;71;20223;-76
2023/10/04 10:32:06;;;;;;;3.70;2.17;;;;;;;30.25;33.68;93768.06;2019742;71;20173;-76
2023/10/04 10:34:32;;;;;;;5.20;2.30;;;;;;;31.97;32.03;93763.03;2020063;71;20158;-76
2023/10/04 10:37:18;;;;;;;3.05;1.70;;;;;;;33.01;30.16;93761.84;2019650;71;20527;-77
2023/10/04 10:39:49;;;;;;;4.80;1.98;;;;;;;30.34;34.12;93751.38;2019654;71;20185;-77
2023/10/04 10:42:15;;;;;;;2.90;2.20;;;;;;;32.12;31.67;93749.91;2019118;71;20238;-76
2023/10/04 10:44:42;;;;;;;3.95;1.92;;;;;;;32.74;29.70;93756.16;2019628;71;20250;-77
2023/10/04 10:47:23;;;;;;;4.60;2.22;;;;;;;34.01;29.77;93747.06;2019504;71;20133;-77
2023/10/04 10:49:56;;;;;;;3.22;1.95;;;;;;;33.48;28.26;93747.59;2019478;71;20164;-77
2023/10/04 10:52:34;;;;;;;3.42;1.90;;;;;;;31.84;31.35;93735.44;2019382;71;20150;-76
2023/10/04 10:55:05;;;;;;;1.90;1.60;;;;;;;33.14;29.18;93737.66;2019231;71;20173;-76
2023/10/04 10:57:36;;;;;;;2.67;1.85;;;;;;;35.08;27.30;93726.66;2018832;71;20153;-75
2023/10/04 11:02:47;;;;;;;2.38;1.92;;;;;;;36.96;26.60;93725.28;2019113;71;20298;-77
2023/10/04 11:05:16;;;;;;;3.10;1.80;;;;;;;35.88;26.88;93717.22;2019419;71;20154;-78
2023/10/04 11:07:44;;;;;;;3.10;2.10;;;;;;;37.46;25.08;93722.59;2019555;71;20166;-79
2023/10/04 11:10:15;;;;;;;2.13;1.67;;;;;;;38.43;24.57;93725.13;2019581;71;20146;-77
2023/10/04 11:13:02;;;;;;;2.28;1.65;;;;;;;40.12;23.97;93707.94;2019290;71;20173;-79
2023/10/04 11:15:28;;;;;;;2.85;1.80;;;;;;;37.21;23.97;93701.94;2018690;71;20596;-77
2023/10/04 11:17:54;;;;;;;2.42;1.83;;;;;;;39.13;22.53;93698.00;2019426;71;20166;-79
2023/10/04 11:20:21;;;;;;;3.85;1.95;;;;;;;41.08;22.53;93692.50;2019468;71;20211;-78
2023/10/04 11:22:49;;;;;;;2.00;1.70;;;;;;;38.15;24.64;93676.69;2019292;71;20169;-78
2023/10/04 11:25:16;;;;;;;2.45;1.90;;;;;;;40.16;22.66;93668.03;2019113;71;20203;-74
2023/10/04 11:27:47;;;;;;;1.77;1.50;;;;;;;36.27;24.22;93660.78;2019165;71;20165;-74
2023/10/04 11:30:16;;;;;;;1.92;1.70;;;;;;;39.36;22.18;93653.84;2019655;71;20618;-75
2023/10/04 11:32:45;;;;;;;1.88;1.67;;;;;;;41.29;22.19;93656.97;2018853;71;20260;-79
2023/10/04 11:35:11;;;;;;;1.90;1.70;;;;;;;40.18;22.81;93648.00;2018949;71;20158;-80
2023/10/04 11:37:45;;;;;;;2.33;1.95;;;;;;;42.22;21.09;93648.56;2019428;71;20162;-78
2023/10/04 11:40:12;;;;;;;1.65;1.50;;;;;;;43.02;20.96;93647.78;2019492;71;20145;-78
2023/10/04 11:42:39;;;;;;;3.38;1.60;;;;;;;44.38;18.96;93649.03;2019387;71;20624;-79
2023/10/04 11:45:26;;;;;;;2.60;1.50;;;;;;;45.61;18.56;93642.91;2019384;71;20138;-78
2023/10/04 11:48:01;;;;;;;5.05;2.00;;;;;;;45.86;18.70;93654.06;2019474;71;20201;-79
2023/10/04 11:50:52;;;;;;;1.98;1.42;;;;;;;45.38;18.46;93647.16;2019411;71;20260;-78
2023/10/04 11:53:48;;;;;;;2.20;1.60;;;;;;;42.91;20.03;93626.84;2019495;71;20174;-80